createdAt,value
2023-04-21T00:01:49.089Z,66.24
2023-04-21T00:04:20.385Z,66.15
2023-04-21T00:06:51.719Z,66.66
2023-04-21T00:09:21.984Z,66.58
2023-04-21T00:11:53.439Z,66.60
2023-04-21T00:14:23.106Z,66.29
2023-04-21T00:16:53.804Z,67.03
2023-04-21T00:19:24.344Z,66.08
2023-04-21T00:21:59.208Z,65.92
2023-04-21T00:24:29.134Z,66.05
2023-04-21T00:26:59.503Z,66.51
2023-04-21T00:29:28.540Z,66.36
2023-04-21T00:32:00.382Z,65.80
2023-04-21T00:34:29.928Z,65.66
2023-04-21T00:36:59.561Z,66.09
2023-04-21T00:39:29.185Z,66.83
2023-04-21T00:41:58.116Z,66.70
2023-04-21T00:44:27.592Z,66.38
2023-04-21T00:46:56.884Z,66.83
2023-04-21T00:49:27.080Z,67.60
2023-04-21T00:51:56.692Z,66.77
2023-04-21T00:54:26.535Z,67.02
2023-04-21T00:57:00.498Z,67.57
2023-04-21T00:59:31.604Z,67.79
2023-04-21T01:02:04.670Z,67.57
2023-04-21T01:04:40.413Z,67.36
2023-04-21T01:07:10.413Z,68.41
2023-04-21T01:09:40.576Z,67.96
2023-04-21T01:12:12.915Z,67.70
2023-04-21T01:14:42.247Z,67.98
2023-04-21T01:17:13.799Z,67.66
2023-04-21T01:19:44.805Z,69.15
2023-04-21T01:22:15.606Z,69.66
2023-04-21T01:24:47.974Z,69.65
2023-04-21T01:27:21.788Z,69.56
2023-04-21T01:29:52.810Z,69.88
2023-04-21T01:32:29.727Z,70.12
2023-04-21T01:35:00.660Z,70.63
2023-04-21T01:37:34.049Z,71.09
2023-04-21T01:40:09.669Z,71.25
2023-04-21T01:42:42.989Z,71.18
2023-04-21T01:45:13.563Z,70.78
2023-04-21T01:47:42.593Z,70.53
2023-04-21T01:50:12.260Z,70.04
2023-04-21T01:52:44.518Z,70.52
2023-04-21T01:55:15.367Z,69.54
2023-04-21T01:57:45.114Z,70.07
2023-04-21T02:00:15.407Z,70.24
2023-04-21T02:02:45.415Z,70.23
2023-04-21T02:05:16.084Z,70.15
2023-04-21T02:07:46.506Z,70.26
2023-04-21T02:10:16.865Z,70.86
2023-04-21T02:12:46.888Z,70.24
2023-04-21T02:15:16.865Z,70.11
2023-04-21T02:17:47.761Z,69.58
2023-04-21T02:20:17.350Z,70.79
2023-04-21T02:22:47.011Z,70.86
2023-04-21T02:25:17.006Z,70.29
2023-04-21T02:27:47.546Z,71.16
2023-04-21T02:30:16.720Z,70.07
2023-04-21T02:32:47.211Z,70.02
2023-04-21T02:35:16.585Z,69.76
2023-04-21T02:37:46.474Z,71.06
2023-04-21T02:40:17.678Z,69.68
2023-04-21T02:42:47.636Z,70.28
2023-04-21T02:45:17.077Z,70.38
2023-04-21T02:47:47.337Z,70.68
2023-04-21T02:50:16.824Z,70.75
2023-04-21T02:52:47.218Z,70.86
2023-04-21T02:55:16.793Z,70.02
2023-04-21T02:57:46.076Z,70.56
2023-04-21T03:00:15.622Z,70.57
2023-04-21T03:02:46.121Z,70.21
2023-04-21T03:05:16.378Z,70.26
2023-04-21T03:07:46.783Z,70.49
2023-04-21T03:10:17.450Z,70.38
2023-04-21T03:12:47.555Z,69.86
2023-04-21T03:15:17.292Z,69.38
2023-04-21T03:17:46.405Z,69.29
2023-04-21T03:20:16.315Z,69.20
2023-04-21T03:22:46.792Z,68.66
2023-04-21T03:25:16.349Z,68.72
2023-04-21T03:27:45.993Z,68.01
2023-04-21T03:30:15.015Z,67.80
2023-04-21T03:32:44.905Z,67.62
2023-04-21T03:35:14.843Z,67.75
2023-04-21T03:37:43.985Z,67.53
2023-04-21T03:40:12.829Z,67.42
2023-04-21T03:42:42.492Z,67.41
2023-04-21T03:45:12.902Z,67.43
2023-04-21T03:47:42.451Z,67.32
2023-04-21T03:50:12.225Z,67.08
2023-04-21T03:52:41.635Z,67.12
2023-04-21T03:55:12.415Z,67.11
2023-04-21T03:57:42.727Z,66.97
2023-04-21T04:00:14.155Z,67.19
2023-04-21T04:02:44.108Z,67.10
2023-04-21T04:05:14.201Z,67.38
2023-04-21T04:07:45.898Z,67.02
2023-04-21T04:10:15.626Z,66.54
2023-04-21T04:12:45.140Z,66.50
2023-04-21T04:15:14.178Z,66.34
2023-04-21T04:17:44.376Z,66.65
2023-04-21T04:20:14.130Z,66.52
2023-04-21T04:22:43.757Z,66.37
2023-04-21T04:25:15.426Z,66.27
2023-04-21T04:27:45.455Z,66.32
2023-04-21T04:30:16.275Z,66.09
2023-04-21T04:32:45.874Z,66.02
2023-04-21T04:35:16.382Z,65.99
2023-04-21T04:37:45.810Z,65.81
2023-04-21T04:40:16.023Z,65.61
2023-04-21T04:42:47.446Z,65.93
2023-04-21T04:45:17.742Z,66.74
2023-04-21T04:47:46.860Z,66.53
2023-04-21T04:50:16.504Z,66.60
2023-04-21T04:52:47.595Z,66.57
2023-04-21T04:55:17.660Z,66.34
2023-04-21T04:57:47.506Z,66.29
2023-04-21T05:00:17.822Z,65.92
2023-04-21T05:02:47.207Z,65.80
2023-04-21T05:05:17.436Z,65.83
2023-04-21T05:07:47.349Z,65.37
2023-04-21T05:10:17.067Z,65.20
2023-04-21T05:12:46.039Z,65.21
2023-04-21T05:15:15.947Z,64.77
2023-04-21T05:17:45.746Z,64.46
2023-04-21T05:20:15.999Z,64.29
2023-04-21T05:22:45.620Z,64.25
2023-04-21T05:25:16.353Z,64.18
2023-04-21T05:27:46.164Z,63.97
2023-04-21T05:30:16.229Z,63.80
2023-04-21T05:32:45.440Z,63.82
2023-04-21T05:35:17.014Z,63.59
2023-04-21T05:37:46.311Z,63.67
2023-04-21T05:40:15.953Z,63.34
2023-04-21T05:42:45.885Z,63.59
2023-04-21T05:45:15.391Z,63.39
2023-04-21T05:47:44.837Z,63.30
2023-04-21T05:50:14.499Z,63.28
2023-04-21T05:52:44.167Z,63.26
2023-04-21T05:55:13.948Z,63.22
2023-04-21T05:57:44.422Z,62.97
2023-04-21T06:00:14.980Z,62.59
2023-04-21T06:02:44.626Z,62.70
2023-04-21T06:05:16.076Z,62.56
2023-04-21T06:07:46.127Z,62.59
2023-04-21T06:10:16.283Z,62.39
2023-04-21T06:12:46.002Z,62.17
2023-04-21T06:15:15.449Z,61.94
2023-04-21T06:17:44.945Z,61.58
2023-04-21T06:20:14.128Z,61.29
2023-04-21T06:22:44.120Z,60.83
2023-04-21T06:25:14.015Z,60.73
2023-04-21T06:27:46.163Z,60.26
2023-04-21T06:30:16.198Z,60.36
2023-04-21T06:32:48.246Z,60.49
2023-04-21T06:35:17.774Z,60.66
2023-04-21T06:37:46.723Z,60.73
2023-04-21T06:40:16.832Z,60.34
2023-04-21T06:42:47.017Z,59.47
2023-04-21T06:45:16.974Z,59.62
2023-04-21T06:47:47.148Z,59.16
2023-04-21T06:50:16.686Z,58.85
2023-04-21T06:52:46.674Z,57.91
2023-04-21T06:55:16.318Z,57.69
2023-04-21T06:57:45.905Z,57.35
2023-04-21T07:00:17.588Z,57.86
2023-04-21T07:02:47.180Z,56.96
2023-04-21T07:05:17.507Z,56.26
2023-04-21T07:07:48.842Z,55.99
2023-04-21T07:10:20.255Z,55.82
2023-04-21T07:12:50.496Z,55.56
2023-04-21T07:15:21.033Z,55.65
2023-04-21T07:17:52.018Z,55.21
2023-04-21T07:20:21.619Z,55.07
2023-04-21T07:22:52.075Z,54.96
2023-04-21T07:25:21.729Z,54.40
2023-04-21T07:27:52.398Z,54.38
2023-04-21T07:30:22.039Z,54.12
2023-04-21T07:32:52.589Z,53.74
2023-04-21T07:35:21.907Z,53.57
2023-04-21T07:37:51.869Z,53.12
2023-04-21T07:40:21.456Z,52.28
2023-04-21T07:42:50.955Z,51.49
2023-04-21T07:45:21.449Z,51.75
2023-04-21T07:47:51.797Z,51.29
2023-04-21T07:50:22.922Z,51.10
2023-04-21T07:52:52.921Z,50.80
2023-04-21T07:55:23.066Z,50.19
2023-04-21T07:57:52.933Z,50.11
2023-04-21T08:00:23.197Z,48.99
2023-04-21T08:02:53.151Z,49.37
2023-04-21T08:05:22.582Z,48.53
2023-04-21T08:07:52.550Z,48.85
2023-04-21T08:10:22.892Z,47.54
2023-04-21T08:12:52.249Z,47.50
2023-04-21T08:15:22.426Z,45.81
2023-04-21T08:17:52.859Z,45.78
2023-04-21T08:20:22.738Z,45.75
2023-04-21T08:22:52.892Z,45.75
2023-04-21T08:25:22.874Z,44.61
2023-04-21T08:27:52.853Z,43.90
2023-04-21T08:30:23.279Z,43.62
2023-04-21T08:32:54.707Z,43.21
2023-04-21T08:35:25.907Z,42.10
2023-04-21T08:37:56.189Z,41.08
2023-04-21T08:40:34.969Z,40.90
2023-04-21T08:43:08.085Z,40.50
2023-04-21T08:45:39.497Z,39.80
2023-04-21T08:48:20.624Z,40.12
2023-04-21T08:50:54.392Z,40.25
2023-04-21T08:53:23.946Z,40.21
2023-04-21T08:56:09.997Z,39.74
2023-04-21T08:58:44.106Z,39.80
2023-04-21T09:01:14.214Z,39.40
2023-04-21T09:03:43.701Z,39.45
2023-04-21T09:06:13.740Z,37.95
2023-04-21T09:08:56.471Z,38.80
2023-04-21T09:11:26.456Z,37.66
2023-04-21T09:13:58.914Z,37.00
2023-04-21T09:16:33.926Z,36.48
2023-04-21T09:19:03.150Z,36.65
2023-04-21T09:21:33.526Z,36.76
2023-04-21T09:24:08.378Z,36.48
2023-04-21T09:26:39.319Z,36.14
2023-04-21T09:29:09.499Z,36.10
2023-04-21T09:31:40.359Z,36.37
2023-04-21T09:34:31.581Z,36.44
2023-04-21T09:37:03.297Z,36.70
2023-04-21T09:39:46.390Z,36.04
2023-04-21T09:42:31.359Z,36.42
2023-04-21T09:47:43.123Z,35.50
2023-04-21T09:50:13.639Z,35.77
2023-04-21T09:52:45.417Z,36.04
2023-04-21T09:55:15.834Z,35.67
2023-04-21T09:57:51.254Z,35.73
2023-04-21T10:00:25.975Z,35.58
2023-04-21T10:02:59.074Z,35.47
2023-04-21T10:05:29.546Z,35.52
2023-04-21T10:07:59.949Z,35.03
2023-04-21T10:10:34.704Z,35.24
2023-04-21T10:13:04.800Z,35.37
2023-04-21T10:15:38.350Z,35.20
2023-04-21T10:18:20.162Z,35.41
2023-04-21T10:20:56.753Z,34.93
2023-04-21T10:23:37.934Z,34.44
2023-04-21T10:26:13.640Z,34.36
2023-04-21T10:29:07.459Z,34.77
2023-04-21T10:31:59.496Z,34.87
2023-04-21T10:34:38.077Z,34.95
2023-04-21T10:37:07.193Z,34.70
2023-04-21T10:39:44.669Z,34.82
2023-04-21T10:42:14.348Z,34.94
2023-04-21T10:44:53.911Z,35.07
2023-04-21T10:47:33.986Z,34.43
2023-04-21T10:50:23.074Z,33.17
2023-04-21T10:52:56.477Z,32.49
2023-04-21T10:55:30.900Z,32.25
2023-04-21T10:58:03.753Z,32.28
2023-04-21T11:00:34.266Z,32.34
2023-04-21T11:03:08.028Z,32.55
2023-04-21T11:05:40.788Z,32.15
2023-04-21T11:08:16.026Z,31.34
2023-04-21T11:10:57.016Z,31.43
2023-04-21T11:13:34.605Z,31.49
2023-04-21T11:16:07.757Z,31.99
2023-04-21T11:18:40.382Z,31.69
2023-04-21T11:21:18.731Z,31.56
2023-04-21T11:23:54.307Z,30.67
2023-04-21T11:26:38.809Z,31.13
2023-04-21T11:29:12.126Z,30.53
2023-04-21T11:31:44.256Z,30.33
2023-04-21T11:34:19.769Z,30.15
2023-04-21T11:36:50.068Z,29.86
2023-04-21T11:39:22.418Z,30.13
2023-04-21T11:41:53.045Z,30.70
2023-04-21T11:44:33.722Z,28.16
2023-04-21T11:47:33.525Z,28.61
2023-04-21T11:50:02.792Z,28.29
2023-04-21T11:52:38.616Z,28.27
2023-04-21T11:55:18.127Z,27.52
2023-04-21T11:57:51.627Z,27.68
2023-04-21T12:00:22.334Z,27.97
2023-04-21T12:02:57.323Z,28.09
2023-04-21T12:05:37.488Z,28.44
2023-04-21T12:08:06.708Z,29.13
2023-04-21T12:10:36.184Z,27.67
2023-04-21T12:13:06.477Z,27.09
2023-04-21T12:15:35.826Z,27.67
2023-04-21T12:18:15.060Z,27.77
2023-04-21T12:20:52.575Z,27.73
2023-04-21T12:23:21.540Z,27.09
2023-04-21T12:25:51.863Z,26.23
2023-04-21T12:28:21.360Z,24.96
2023-04-21T12:30:50.677Z,25.60
2023-04-21T12:33:21.270Z,26.03
2023-04-21T12:35:51.016Z,25.61
2023-04-21T12:38:21.514Z,25.58
2023-04-21T12:40:51.356Z,26.12
2023-04-21T12:43:21.250Z,26.06
2023-04-21T12:45:53.295Z,26.13
2023-04-21T12:48:22.283Z,26.42
2023-04-21T12:50:51.255Z,26.30
2023-04-21T12:53:21.358Z,26.25
2023-04-21T12:56:03.526Z,26.38
2023-04-21T12:58:35.039Z,27.05
2023-04-21T13:01:05.828Z,26.97
2023-04-21T13:03:35.501Z,27.15
2023-04-21T13:06:05.433Z,27.44
2023-04-21T13:08:36.943Z,27.01
2023-04-21T13:11:07.742Z,27.71
2023-04-21T13:13:37.661Z,28.40
2023-04-21T13:16:07.695Z,28.46
2023-04-21T13:18:39.291Z,28.22
2023-04-21T13:21:08.641Z,28.64
2023-04-21T13:23:38.693Z,28.91
2023-04-21T13:26:09.505Z,28.81
2023-04-21T13:28:39.811Z,28.82
2023-04-21T13:31:09.566Z,29.14
2023-04-21T13:33:39.685Z,28.94
2023-04-21T13:36:12.838Z,28.97
2023-04-21T13:38:43.271Z,29.21
2023-04-21T13:41:12.759Z,29.28
2023-04-21T13:43:42.599Z,29.53
2023-04-21T13:46:14.093Z,29.30
2023-04-21T13:48:44.991Z,29.65
2023-04-21T13:51:15.175Z,29.90
2023-04-21T13:53:44.779Z,29.00
2023-04-21T13:56:14.352Z,29.32
2023-04-21T13:58:45.052Z,29.49
2023-04-21T14:01:15.069Z,29.83
2023-04-21T14:03:45.338Z,29.63
2023-04-21T14:06:15.172Z,29.88
2023-04-21T14:08:45.548Z,30.10
2023-04-21T14:11:15.695Z,29.82
2023-04-21T14:14:00.853Z,30.36
2023-04-21T14:16:35.067Z,30.28
2023-04-21T14:19:05.025Z,29.82
2023-04-21T14:21:35.008Z,30.18
2023-04-21T14:24:03.969Z,30.18
2023-04-21T14:26:33.190Z,30.17
2023-04-21T14:29:02.940Z,30.08
2023-04-21T14:31:32.462Z,29.83
2023-04-21T14:34:02.126Z,29.59
2023-04-21T14:36:32.224Z,29.73
2023-04-21T14:39:02.505Z,29.77
2023-04-21T14:41:31.414Z,29.83
2023-04-21T14:44:00.710Z,29.85
2023-04-21T14:46:30.308Z,30.10
2023-04-21T14:48:59.645Z,30.33
2023-04-21T14:51:29.080Z,30.40
2023-04-21T14:53:58.220Z,30.21
2023-04-21T14:56:27.715Z,29.35
2023-04-21T14:58:57.469Z,29.75
2023-04-21T15:01:26.618Z,29.49
2023-04-21T15:03:58.100Z,29.32
2023-04-21T15:06:32.202Z,29.27
2023-04-21T15:09:01.443Z,29.83
2023-04-21T15:11:30.738Z,29.90
2023-04-21T15:14:00.918Z,29.92
2023-04-21T15:16:31.188Z,30.34
2023-04-21T15:19:01.334Z,29.90
2023-04-21T15:21:32.505Z,30.60
2023-04-21T15:24:03.474Z,30.35
2023-04-21T15:26:33.904Z,30.38
2023-04-21T15:29:02.920Z,30.07
2023-04-21T15:31:32.229Z,31.06
2023-04-21T15:34:01.603Z,31.20
2023-04-21T15:36:32.434Z,30.49
2023-04-21T15:39:02.041Z,30.27
2023-04-21T15:41:32.622Z,30.32
2023-04-21T15:44:02.303Z,30.04
2023-04-21T15:46:32.490Z,30.37
2023-04-21T15:49:02.301Z,30.68
2023-04-21T15:51:36.460Z,31.09
2023-04-21T15:54:06.412Z,31.10
2023-04-21T15:56:35.876Z,31.29
2023-04-21T15:59:05.532Z,30.97
2023-04-21T16:01:35.563Z,30.44
2023-04-21T16:04:05.983Z,31.07
2023-04-21T16:06:36.607Z,31.19
2023-04-21T16:09:06.583Z,31.14
2023-04-21T16:11:36.469Z,31.29
2023-04-21T16:14:06.587Z,31.74
2023-04-21T16:16:37.830Z,31.76
2023-04-21T16:19:07.090Z,31.70
2023-04-21T16:21:37.565Z,31.93
2023-04-21T16:24:09.149Z,32.21
2023-04-21T16:26:38.483Z,32.92
2023-04-21T16:29:08.005Z,32.96
2023-04-21T16:31:37.453Z,32.66
2023-04-21T16:34:06.582Z,33.62
2023-04-21T16:36:37.842Z,33.39
2023-04-21T16:39:07.433Z,33.58
2023-04-21T16:41:36.914Z,33.56
2023-04-21T16:44:06.045Z,33.52
2023-04-21T16:46:36.542Z,33.57
2023-04-21T16:49:05.925Z,33.74
2023-04-21T16:51:35.631Z,33.68
2023-04-21T16:54:04.668Z,33.81
2023-04-21T16:56:33.595Z,34.02
2023-04-21T16:59:03.572Z,33.98
2023-04-21T17:01:33.563Z,34.49
2023-04-21T17:04:03.809Z,34.24
2023-04-21T17:06:34.557Z,34.58
2023-04-21T17:09:04.794Z,35.09
2023-04-21T17:11:36.706Z,35.41
2023-04-21T17:14:07.367Z,35.48
2023-04-21T17:16:37.638Z,35.99
2023-04-21T17:19:07.342Z,35.84
2023-04-21T17:21:36.778Z,36.23
2023-04-21T17:24:06.543Z,36.20
2023-04-21T17:26:36.165Z,36.28
2023-04-21T17:29:05.914Z,36.57
2023-04-21T17:31:35.846Z,36.62
2023-04-21T17:34:04.923Z,36.68
2023-04-21T17:36:34.603Z,37.05
2023-04-21T17:39:04.927Z,36.93
2023-04-21T17:41:35.756Z,37.13
2023-04-21T17:44:05.275Z,37.51
2023-04-21T17:46:38.309Z,37.83
2023-04-21T17:49:07.581Z,38.00
2023-04-21T17:51:36.647Z,37.85
2023-04-21T17:54:06.072Z,38.11
2023-04-21T17:56:35.827Z,38.16
2023-04-21T17:59:06.239Z,38.50
2023-04-21T18:01:36.221Z,38.54
2023-04-21T18:04:05.937Z,38.87
2023-04-21T18:06:36.637Z,38.90
2023-04-21T18:09:07.251Z,38.84
2023-04-21T18:11:36.689Z,39.21
2023-04-21T18:14:07.071Z,39.74
2023-04-21T18:16:41.401Z,39.55
2023-04-21T18:19:12.101Z,40.03
2023-04-21T18:21:42.449Z,40.32
2023-04-21T18:24:12.552Z,40.94
2023-04-21T18:26:42.587Z,40.76
2023-04-21T18:29:12.493Z,40.86
2023-04-21T18:31:41.978Z,40.97
2023-04-21T18:34:12.764Z,41.28
2023-04-21T18:36:45.309Z,42.47
2023-04-21T18:39:14.842Z,42.95
2023-04-21T18:41:49.949Z,43.15
2023-04-21T18:44:19.424Z,43.79
2023-04-21T18:46:49.188Z,44.18
2023-04-21T18:49:19.062Z,44.32
2023-04-21T18:51:48.642Z,44.73
2023-04-21T18:54:18.214Z,46.29
2023-04-21T18:56:47.289Z,45.99
2023-04-21T18:59:16.292Z,45.85
2023-04-21T19:01:45.746Z,44.79
2023-04-21T19:04:16.127Z,45.64
2023-04-21T19:06:45.974Z,46.67
2023-04-21T19:09:16.156Z,46.44
2023-04-21T19:11:49.060Z,46.23
2023-04-21T19:14:18.332Z,46.19
2023-04-21T19:16:49.240Z,47.88
2023-04-21T19:19:20.414Z,47.32
2023-04-21T19:21:51.037Z,47.72
2023-04-21T19:24:23.435Z,47.63
2023-04-21T19:26:52.508Z,47.63
2023-04-21T19:29:22.815Z,48.39
2023-04-21T19:31:52.583Z,47.61
2023-04-21T19:34:22.695Z,49.20
2023-04-21T19:36:53.384Z,49.45
2023-04-21T19:39:23.138Z,49.04
2023-04-21T19:41:54.053Z,49.30
2023-04-21T19:44:26.094Z,48.98
2023-04-21T19:46:55.206Z,50.70
2023-04-21T19:49:25.248Z,50.23
2023-04-21T19:51:54.272Z,49.36
2023-04-21T19:54:23.222Z,49.81
2023-04-21T19:56:52.789Z,50.17
2023-04-21T19:59:22.683Z,49.54
2023-04-21T20:01:52.412Z,50.75
2023-04-21T20:04:22.003Z,50.57
2023-04-21T20:06:51.680Z,50.23
2023-04-21T20:09:21.306Z,50.80
2023-04-21T20:11:51.601Z,51.45
2023-04-21T20:14:21.618Z,50.58
2023-04-21T20:16:52.026Z,51.02
2023-04-21T20:19:23.544Z,52.19
2023-04-21T20:21:53.951Z,51.31
2023-04-21T20:24:23.546Z,52.11
2023-04-21T20:26:53.998Z,52.03
2023-04-21T20:29:23.549Z,52.78
2023-04-21T20:31:53.349Z,53.07
2023-04-21T20:34:23.005Z,52.47
2023-04-21T20:36:55.112Z,52.84
2023-04-21T20:39:25.649Z,53.76
2023-04-21T20:42:11.360Z,55.67
2023-04-21T20:44:43.667Z,54.46
2023-04-21T20:47:14.356Z,54.75
2023-04-21T20:49:47.546Z,54.46
2023-04-21T20:52:17.177Z,55.27
2023-04-21T20:54:46.326Z,54.84
2023-04-21T20:57:17.379Z,55.41
2023-04-21T20:59:47.440Z,55.21
2023-04-21T21:02:17.858Z,55.45
2023-04-21T21:04:48.014Z,55.45
2023-04-21T21:07:17.829Z,56.36
2023-04-21T21:09:46.870Z,56.52
2023-04-21T21:12:16.413Z,56.71
2023-04-21T21:14:46.152Z,56.41
2023-04-21T21:17:17.288Z,56.30
2023-04-21T21:19:47.048Z,55.54
2023-04-21T21:22:17.224Z,55.51
2023-04-21T21:24:47.600Z,56.25
2023-04-21T21:27:18.986Z,55.98
2023-04-21T21:29:48.479Z,56.67
2023-04-21T21:32:18.118Z,55.60
2023-04-21T21:34:50.148Z,56.19
2023-04-21T21:37:20.151Z,55.36
2023-04-21T21:39:50.510Z,56.17
2023-04-21T21:42:20.331Z,55.68
2023-04-21T21:44:50.404Z,56.80
2023-04-21T21:47:20.154Z,56.21
2023-04-21T21:49:55.323Z,56.57
2023-04-21T21:52:25.675Z,56.78
2023-04-21T21:54:57.644Z,56.51
2023-04-21T21:57:27.274Z,57.38
2023-04-21T21:59:57.065Z,57.05
2023-04-21T22:02:27.409Z,57.13
2023-04-21T22:04:58.836Z,57.14
2023-04-21T22:07:27.973Z,56.84
2023-04-21T22:10:00.577Z,56.68
2023-04-21T22:12:33.625Z,57.75
2023-04-21T22:15:03.361Z,57.50
2023-04-21T22:17:35.169Z,58.01
2023-04-21T22:20:07.721Z,57.15
2023-04-21T22:22:38.305Z,56.60
2023-04-21T22:25:12.664Z,56.89
2023-04-21T22:27:41.987Z,57.27
2023-04-21T22:30:11.913Z,57.79
2023-04-21T22:32:42.002Z,57.73
2023-04-21T22:35:11.544Z,58.34
2023-04-21T22:37:42.423Z,58.75
2023-04-21T22:40:11.605Z,59.02
2023-04-21T22:42:41.583Z,58.55
2023-04-21T22:45:10.810Z,58.25
2023-04-21T22:47:41.216Z,58.71
2023-04-21T22:50:10.924Z,59.41
2023-04-21T22:52:40.690Z,58.85
2023-04-21T22:55:10.995Z,58.66
2023-04-21T22:57:41.033Z,58.23
2023-04-21T23:00:11.788Z,58.03
2023-04-21T23:02:41.285Z,58.32
2023-04-21T23:05:10.719Z,58.03
2023-04-21T23:07:40.242Z,57.39
2023-04-21T23:10:10.296Z,57.89
2023-04-21T23:12:40.147Z,57.88
2023-04-21T23:15:10.104Z,57.21
2023-04-21T23:17:40.074Z,57.07
2023-04-21T23:20:11.181Z,57.13
2023-04-21T23:22:40.318Z,57.52
2023-04-21T23:25:10.062Z,57.78
2023-04-21T23:27:40.646Z,57.81
2023-04-21T23:30:11.388Z,58.10
2023-04-21T23:32:41.633Z,58.95
2023-04-21T23:35:12.036Z,58.87
2023-04-21T23:37:41.512Z,59.13
2023-04-21T23:40:12.926Z,58.40
2023-04-21T23:42:42.600Z,58.67
2023-04-21T23:45:18.644Z,59.54
2023-04-21T23:47:48.140Z,59.69
2023-04-21T23:50:17.672Z,60.46
2023-04-21T23:52:48.802Z,59.30
2023-04-21T23:55:18.564Z,59.49
2023-04-21T23:57:48.314Z,61.22
